sensor_id;sensor_type;location;lat;lon;timestamp;pressure;altitude;pressure_sealevel;temperature;humidity
39363;BME280;25088;43.238;23.110;2023-04-29T00:00:37;96571.19;;;8.74;59.25
39363;BME280;25088;43.238;23.110;2023-04-29T00:03:02;96582.22;;;8.67;59.40
39363;BME280;25088;43.238;23.110;2023-04-29T00:05:28;96578.69;;;8.55;60.70
39363;BME280;25088;43.238;23.110;2023-04-29T00:07:53;96570.84;;;8.42;61.43
39363;BME280;25088;43.238;23.110;2023-04-29T00:10:19;96548.00;;;8.31;61.43
39363;BME280;25088;43.238;23.110;2023-04-29T00:12:44;96556.06;;;8.38;62.24
39363;BME280;25088;43.238;23.110;2023-04-29T00:15:10;96563.97;;;8.27;62.20
39363;BME280;25088;43.238;23.110;2023-04-29T00:17:35;96551.91;;;8.23;62.50
39363;BME280;25088;43.238;23.110;2023-04-29T00:20:01;96555.09;;;8.20;63.92
39363;BME280;25088;43.238;23.110;2023-04-29T00:22:27;96546.88;;;8.03;64.25
39363;BME280;25088;43.238;23.110;2023-04-29T00:24:52;96543.44;;;8.08;63.98
39363;BME280;25088;43.238;23.110;2023-04-29T00:27:18;96540.81;;;8.13;63.54
39363;BME280;25088;43.238;23.110;2023-04-29T00:29:44;96533.03;;;8.05;62.95
39363;BME280;25088;43.238;23.110;2023-04-29T00:32:10;96525.03;;;7.87;63.68
39363;BME280;25088;43.238;23.110;2023-04-29T00:34:35;96533.19;;;7.87;64.44
39363;BME280;25088;43.238;23.110;2023-04-29T00:37:00;96525.25;;;7.85;64.94
39363;BME280;25088;43.238;23.110;2023-04-29T00:39:26;96527.06;;;7.68;65.77
39363;BME280;25088;43.238;23.110;2023-04-29T00:41:51;96534.97;;;7.69;66.13
39363;BME280;25088;43.238;23.110;2023-04-29T00:44:17;96528.03;;;7.62;66.14
39363;BME280;25088;43.238;23.110;2023-04-29T00:46:43;96530.25;;;7.53;67.20
39363;BME280;25088;43.238;23.110;2023-04-29T00:49:09;96524.56;;;7.55;66.09
39363;BME280;25088;43.238;23.110;2023-04-29T00:51:36;96532.38;;;7.63;66.38
39363;BME280;25088;43.238;23.110;2023-04-29T00:54:06;96528.13;;;7.55;67.13
39363;BME280;25088;43.238;23.110;2023-04-29T00:56:34;96522.34;;;7.51;66.99
39363;BME280;25088;43.238;23.110;2023-04-29T00:59:01;96526.59;;;7.47;67.00
39363;BME280;25088;43.238;23.110;2023-04-29T01:01:28;96525.66;;;7.54;65.96
39363;BME280;25088;43.238;23.110;2023-04-29T01:03:56;96501.56;;;7.57;66.22
39363;BME280;25088;43.238;23.110;2023-04-29T01:07:03;96522.22;;;7.58;65.83
39363;BME280;25088;43.238;23.110;2023-04-29T01:12:51;96518.06;;;7.56;65.70
39363;BME280;25088;43.238;23.110;2023-04-29T01:15:38;96508.63;;;7.58;65.50
39363;BME280;25088;43.238;23.110;2023-04-29T01:18:15;96507.00;;;7.57;65.53
39363;BME280;25088;43.238;23.110;2023-04-29T01:20:43;96499.69;;;7.46;65.25
39363;BME280;25088;43.238;23.110;2023-04-29T01:23:09;96506.63;;;7.65;64.83
39363;BME280;25088;43.238;23.110;2023-04-29T01:25:35;96500.72;;;7.68;64.08
39363;BME280;25088;43.238;23.110;2023-04-29T01:28:12;96508.72;;;7.87;63.14
39363;BME280;25088;43.238;23.110;2023-04-29T01:33:43;96497.47;;;8.07;61.99
39363;BME280;25088;43.238;23.110;2023-04-29T01:36:35;96506.81;;;7.99;62.33
39363;BME280;25088;43.238;23.110;2023-04-29T01:39:26;96501.56;;;8.09;62.25
39363;BME280;25088;43.238;23.110;2023-04-29T01:42:05;96506.81;;;8.11;60.82
39363;BME280;25088;43.238;23.110;2023-04-29T01:44:34;96495.03;;;7.82;61.97
39363;BME280;25088;43.238;23.110;2023-04-29T01:47:01;96502.13;;;7.83;62.78
39363;BME280;25088;43.238;23.110;2023-04-29T01:49:27;96498.94;;;7.74;63.13
39363;BME280;25088;43.238;23.110;2023-04-29T01:51:53;96502.25;;;7.76;63.02
39363;BME280;25088;43.238;23.110;2023-04-29T01:54:19;96499.88;;;7.80;63.49
39363;BME280;25088;43.238;23.110;2023-04-29T01:56:46;96488.66;;;7.76;62.95
39363;BME280;25088;43.238;23.110;2023-04-29T01:59:11;96501.19;;;7.77;62.17
39363;BME280;25088;43.238;23.110;2023-04-29T02:01:37;96482.16;;;7.77;63.01
39363;BME280;25088;43.238;23.110;2023-04-29T02:04:02;96502.84;;;7.66;63.86
39363;BME280;25088;43.238;23.110;2023-04-29T02:06:28;96495.53;;;7.55;63.13
39363;BME280;25088;43.238;23.110;2023-04-29T02:08:56;96497.44;;;7.66;64.16
39363;BME280;25088;43.238;23.110;2023-04-29T02:11:22;96500.63;;;7.51;64.28
39363;BME280;25088;43.238;23.110;2023-04-29T02:13:47;96501.34;;;7.47;64.48
39363;BME280;25088;43.238;23.110;2023-04-29T02:16:14;96497.09;;;7.51;63.84
39363;BME280;25088;43.238;23.110;2023-04-29T02:18:40;96500.16;;;7.43;63.95
39363;BME280;25088;43.238;23.110;2023-04-29T02:21:06;96510.56;;;7.46;63.99
39363;BME280;25088;43.238;23.110;2023-04-29T02:23:32;96500.50;;;7.46;63.83
39363;BME280;25088;43.238;23.110;2023-04-29T02:25:58;96510.31;;;7.47;63.82
39363;BME280;25088;43.238;23.110;2023-04-29T02:28:23;96527.06;;;7.44;64.25
39363;BME280;25088;43.238;23.110;2023-04-29T02:30:49;96523.03;;;7.35;65.22
39363;BME280;25088;43.238;23.110;2023-04-29T02:33:14;96513.94;;;7.30;64.73
39363;BME280;25088;43.238;23.110;2023-04-29T02:35:40;96513.84;;;7.36;64.46
39363;BME280;25088;43.238;23.110;2023-04-29T02:38:06;96511.03;;;7.31;64.40
39363;BME280;25088;43.238;23.110;2023-04-29T02:40:31;96511.00;;;7.43;63.85
39363;BME280;25088;43.238;23.110;2023-04-29T02:42:57;96499.53;;;7.41;63.84
39363;BME280;25088;43.238;23.110;2023-04-29T02:45:22;96486.94;;;7.46;63.23
39363;BME280;25088;43.238;23.110;2023-04-29T02:47:47;96489.03;;;7.56;61.92
39363;BME280;25088;43.238;23.110;2023-04-29T02:50:14;96492.47;;;7.63;61.99
39363;BME280;25088;43.238;23.110;2023-04-29T02:52:39;96489.28;;;7.66;61.54
39363;BME280;25088;43.238;23.110;2023-04-29T02:55:06;96496.09;;;7.69;61.57
39363;BME280;25088;43.238;23.110;2023-04-29T02:57:32;96481.34;;;7.65;61.58
39363;BME280;25088;43.238;23.110;2023-04-29T02:59:58;96494.47;;;7.68;61.81
39363;BME280;25088;43.238;23.110;2023-04-29T03:02:23;96489.59;;;7.70;60.82
39363;BME280;25088;43.238;23.110;2023-04-29T03:04:49;96494.72;;;7.66;61.34
39363;BME280;25088;43.238;23.110;2023-04-29T03:07:14;96504.97;;;7.76;61.26
39363;BME280;25088;43.238;23.110;2023-04-29T03:09:41;96499.03;;;7.79;61.04
39363;BME280;25088;43.238;23.110;2023-04-29T03:12:07;96505.31;;;7.80;61.28
39363;BME280;25088;43.238;23.110;2023-04-29T03:14:32;96503.75;;;7.84;60.51
39363;BME280;25088;43.238;23.110;2023-04-29T03:16:58;96511.56;;;7.92;60.18
39363;BME280;25088;43.238;23.110;2023-04-29T03:19:23;96502.44;;;7.98;59.95
39363;BME280;25088;43.238;23.110;2023-04-29T03:21:49;96480.94;;;7.85;59.15
39363;BME280;25088;43.238;23.110;2023-04-29T03:24:14;96520.97;;;8.13;59.48
39363;BME280;25088;43.238;23.110;2023-04-29T03:26:40;96513.38;;;8.15;59.05
39363;BME280;25088;43.238;23.110;2023-04-29T03:29:07;96508.59;;;8.34;58.89
39363;BME280;25088;43.238;23.110;2023-04-29T03:31:32;96516.97;;;8.56;58.36
39363;BME280;25088;43.238;23.110;2023-04-29T03:33:58;96522.00;;;8.64;58.45
39363;BME280;25088;43.238;23.110;2023-04-29T03:36:24;96504.84;;;8.63;57.52
39363;BME280;25088;43.238;23.110;2023-04-29T03:38:49;96512.13;;;8.74;58.05
39363;BME280;25088;43.238;23.110;2023-04-29T03:41:15;96518.16;;;8.76;57.23
39363;BME280;25088;43.238;23.110;2023-04-29T03:43:40;96523.88;;;8.92;57.59
39363;BME280;25088;43.238;23.110;2023-04-29T03:46:08;96513.47;;;8.89;57.25
39363;BME280;25088;43.238;23.110;2023-04-29T03:48:34;96518.44;;;9.09;55.99
39363;BME280;25088;43.238;23.110;2023-04-29T03:51:00;96512.69;;;9.22;56.21
39363;BME280;25088;43.238;23.110;2023-04-29T03:53:25;96509.06;;;9.16;56.17
39363;BME280;25088;43.238;23.110;2023-04-29T03:55:51;96517.63;;;9.08;56.42
39363;BME280;25088;43.238;23.110;2023-04-29T03:58:16;96515.50;;;9.10;58.42
39363;BME280;25088;43.238;23.110;2023-04-29T04:00:41;96523.97;;;9.14;57.85
39363;BME280;25088;43.238;23.110;2023-04-29T04:03:07;96517.13;;;9.11;57.43
39363;BME280;25088;43.238;23.110;2023-04-29T04:05:33;96515.66;;;9.20;58.01
39363;BME280;25088;43.238;23.110;2023-04-29T04:07:58;96515.22;;;9.28;57.24
39363;BME280;25088;43.238;23.110;2023-04-29T04:10:25;96506.06;;;9.35;57.38
39363;BME280;25088;43.238;23.110;2023-04-29T04:12:50;96509.13;;;9.38;58.10
39363;BME280;25088;43.238;23.110;2023-04-29T04:15:16;96501.63;;;9.45;57.75
39363;BME280;25088;43.238;23.110;2023-04-29T04:17:41;96507.59;;;9.64;57.15
39363;BME280;25088;43.238;23.110;2023-04-29T04:20:07;96492.78;;;9.55;56.26
39363;BME280;25088;43.238;23.110;2023-04-29T04:22:33;96497.25;;;9.83;56.28
39363;BME280;25088;43.238;23.110;2023-04-29T04:24:58;96501.00;;;9.99;56.22
39363;BME280;25088;43.238;23.110;2023-04-29T04:27:24;96495.88;;;10.02;55.45
39363;BME280;25088;43.238;23.110;2023-04-29T04:29:53;96488.06;;;10.11;55.24
39363;BME280;25088;43.238;23.110;2023-04-29T04:32:20;96495.72;;;10.14;56.32
39363;BME280;25088;43.238;23.110;2023-04-29T04:34:46;96486.78;;;10.19;55.37
39363;BME280;25088;43.238;23.110;2023-04-29T04:37:12;96480.50;;;10.35;56.07
39363;BME280;25088;43.238;23.110;2023-04-29T04:39:38;96470.63;;;10.34;56.25
39363;BME280;25088;43.238;23.110;2023-04-29T04:42:03;96477.22;;;10.38;56.86
39363;BME280;25088;43.238;23.110;2023-04-29T04:44:29;96487.06;;;10.39;56.24
39363;BME280;25088;43.238;23.110;2023-04-29T04:46:55;96480.28;;;10.42;57.29
39363;BME280;25088;43.238;23.110;2023-04-29T04:49:22;96469.31;;;10.64;57.92
39363;BME280;25088;43.238;23.110;2023-04-29T04:51:49;96475.50;;;10.54;57.61
39363;BME280;25088;43.238;23.110;2023-04-29T04:54:15;96463.09;;;10.68;56.58
39363;BME280;25088;43.238;23.110;2023-04-29T04:56:41;96473.09;;;10.84;56.55
39363;BME280;25088;43.238;23.110;2023-04-29T04:59:07;96455.34;;;10.87;56.69
39363;BME280;25088;43.238;23.110;2023-04-29T05:01:32;96475.56;;;10.86;57.75
39363;BME280;25088;43.238;23.110;2023-04-29T05:03:58;96483.34;;;10.99;57.99
39363;BME280;25088;43.238;23.110;2023-04-29T05:06:25;96478.78;;;11.10;57.30
39363;BME280;25088;43.238;23.110;2023-04-29T05:08:50;96469.53;;;11.16;57.60
39363;BME280;25088;43.238;23.110;2023-04-29T05:11:16;96480.50;;;11.21;58.93
39363;BME280;25088;43.238;23.110;2023-04-29T05:13:42;96476.53;;;11.34;58.55
39363;BME280;25088;43.238;23.110;2023-04-29T05:16:08;96481.19;;;11.38;58.40
39363;BME280;25088;43.238;23.110;2023-04-29T05:18:34;96470.56;;;11.42;60.74
39363;BME280;25088;43.238;23.110;2023-04-29T05:21:00;96479.03;;;11.41;59.90
39363;BME280;25088;43.238;23.110;2023-04-29T05:23:25;96461.94;;;11.60;59.95
39363;BME280;25088;43.238;23.110;2023-04-29T05:25:52;96459.09;;;11.87;59.23
39363;BME280;25088;43.238;23.110;2023-04-29T05:28:17;96465.28;;;12.15;58.34
39363;BME280;25088;43.238;23.110;2023-04-29T05:30:42;96470.53;;;12.32;57.38
39363;BME280;25088;43.238;23.110;2023-04-29T05:33:09;96472.75;;;12.40;57.33
39363;BME280;25088;43.238;23.110;2023-04-29T05:35:35;96483.50;;;12.72;57.26
39363;BME280;25088;43.238;23.110;2023-04-29T05:38:01;96474.78;;;12.90;57.23
39363;BME280;25088;43.238;23.110;2023-04-29T05:40:27;96463.56;;;13.07;55.84
39363;BME280;25088;43.238;23.110;2023-04-29T05:42:53;96479.25;;;13.53;55.23
39363;BME280;25088;43.238;23.110;2023-04-29T05:45:18;96483.84;;;13.93;53.91
39363;BME280;25088;43.238;23.110;2023-04-29T05:47:44;96496.59;;;14.48;50.43
39363;BME280;25088;43.238;23.110;2023-04-29T05:50:09;96492.41;;;15.06;50.33
39363;BME280;25088;43.238;23.110;2023-04-29T05:52:36;96483.72;;;15.67;47.14
39363;BME280;25088;43.238;23.110;2023-04-29T05:55:01;96447.53;;;15.79;41.87
39363;BME280;25088;43.238;23.110;2023-04-29T05:57:27;96476.88;;;16.17;44.04
39363;BME280;25088;43.238;23.110;2023-04-29T05:59:52;96458.88;;;16.25;44.16
39363;BME280;25088;43.238;23.110;2023-04-29T06:02:19;96466.31;;;16.48;43.83
39363;BME280;25088;43.238;23.110;2023-04-29T06:04:45;96470.34;;;16.56;44.27
39363;BME280;25088;43.238;23.110;2023-04-29T06:07:12;96476.31;;;16.63;43.02
39363;BME280;25088;43.238;23.110;2023-04-29T06:09:38;96472.38;;;16.45;43.97
39363;BME280;25088;43.238;23.110;2023-04-29T06:12:04;96473.13;;;16.56;43.92
39363;BME280;25088;43.238;23.110;2023-04-29T06:14:30;96470.25;;;16.85;43.57
39363;BME280;25088;43.238;23.110;2023-04-29T06:16:55;96461.00;;;16.95;43.30
39363;BME280;25088;43.238;23.110;2023-04-29T06:19:21;96465.19;;;17.11;41.83
39363;BME280;25088;43.238;23.110;2023-04-29T06:21:46;96469.75;;;17.21;41.45
39363;BME280;25088;43.238;23.110;2023-04-29T06:24:12;96472.50;;;17.21;40.63
39363;BME280;25088;43.238;23.110;2023-04-29T06:26:37;96474.34;;;17.25;41.11
39363;BME280;25088;43.238;23.110;2023-04-29T06:29:03;96475.09;;;16.93;41.03
39363;BME280;25088;43.238;23.110;2023-04-29T06:31:28;96470.78;;;16.87;41.50
39363;BME280;25088;43.238;23.110;2023-04-29T06:33:54;96466.47;;;16.81;41.17
39363;BME280;25088;43.238;23.110;2023-04-29T06:36:19;96467.41;;;16.90;40.71
39363;BME280;25088;43.238;23.110;2023-04-29T06:38:45;96466.63;;;16.66;41.15
39363;BME280;25088;43.238;23.110;2023-04-29T06:41:10;96470.50;;;16.65;41.04
39363;BME280;25088;43.238;23.110;2023-04-29T06:43:36;96466.00;;;16.50;41.33
39363;BME280;25088;43.238;23.110;2023-04-29T06:46:01;96468.00;;;16.44;41.41
39363;BME280;25088;43.238;23.110;2023-04-29T06:48:27;96476.94;;;16.36;41.37
39363;BME280;25088;43.238;23.110;2023-04-29T06:50:56;96484.72;;;16.29;41.92
39363;BME280;25088;43.238;23.110;2023-04-29T06:53:23;96477.16;;;16.16;41.72
39363;BME280;25088;43.238;23.110;2023-04-29T06:55:49;96481.72;;;16.01;41.46
39363;BME280;25088;43.238;23.110;2023-04-29T06:58:16;96479.03;;;15.96;42.43
39363;BME280;25088;43.238;23.110;2023-04-29T07:00:45;96485.00;;;16.03;42.56
39363;BME280;25088;43.238;23.110;2023-04-29T07:03:11;96480.25;;;16.09;42.27
39363;BME280;25088;43.238;23.110;2023-04-29T07:05:37;96481.63;;;16.12;42.38
39363;BME280;25088;43.238;23.110;2023-04-29T07:08:06;96476.81;;;16.22;41.87
39363;BME280;25088;43.238;23.110;2023-04-29T07:10:32;96468.44;;;16.33;41.90
39363;BME280;25088;43.238;23.110;2023-04-29T07:12:58;96473.00;;;16.42;41.98
39363;BME280;25088;43.238;23.110;2023-04-29T07:15:28;96468.47;;;16.51;41.62
39363;BME280;25088;43.238;23.110;2023-04-29T07:17:54;96477.44;;;16.62;41.02
39363;BME280;25088;43.238;23.110;2023-04-29T07:20:20;96469.06;;;17.10;41.00
39363;BME280;25088;43.238;23.110;2023-04-29T07:22:46;96463.41;;;17.53;38.94
39363;BME280;25088;43.238;23.110;2023-04-29T07:25:11;96460.59;;;17.91;37.37
39363;BME280;25088;43.238;23.110;2023-04-29T07:27:37;96455.38;;;18.03;37.35
39363;BME280;25088;43.238;23.110;2023-04-29T07:30:03;96459.19;;;18.21;36.67
39363;BME280;25088;43.238;23.110;2023-04-29T07:32:29;96470.91;;;17.99;36.80
39363;BME280;25088;43.238;23.110;2023-04-29T07:34:58;96464.34;;;17.95;37.24
39363;BME280;25088;43.238;23.110;2023-04-29T07:37:24;96464.28;;;18.27;36.61
39363;BME280;25088;43.238;23.110;2023-04-29T07:39:50;96465.34;;;18.45;36.49
39363;BME280;25088;43.238;23.110;2023-04-29T07:42:15;96472.59;;;18.69;36.28
39363;BME280;25088;43.238;23.110;2023-04-29T07:44:41;96465.13;;;18.55;35.90
39363;BME280;25088;43.238;23.110;2023-04-29T07:47:06;96463.88;;;18.48;36.54
39363;BME280;25088;43.238;23.110;2023-04-29T07:49:31;96470.94;;;18.68;36.33
39363;BME280;25088;43.238;23.110;2023-04-29T07:51:57;96473.13;;;18.71;36.78
39363;BME280;25088;43.238;23.110;2023-04-29T07:54:22;96478.19;;;18.64;35.71
39363;BME280;25088;43.238;23.110;2023-04-29T07:56:48;96477.00;;;18.56;35.05
39363;BME280;25088;43.238;23.110;2023-04-29T07:59:14;96474.44;;;18.32;35.75
39363;BME280;25088;43.238;23.110;2023-04-29T08:01:41;96473.84;;;18.35;36.53
39363;BME280;25088;43.238;23.110;2023-04-29T08:04:06;96476.28;;;18.23;36.55
39363;BME280;25088;43.238;23.110;2023-04-29T08:06:32;96487.94;;;18.06;36.73
39363;BME280;25088;43.238;23.110;2023-04-29T08:08:58;96482.88;;;17.94;36.92
39363;BME280;25088;43.238;23.110;2023-04-29T08:11:24;96476.53;;;17.94;36.95
39363;BME280;25088;43.238;23.110;2023-04-29T08:13:50;96484.00;;;17.93;37.24
39363;BME280;25088;43.238;23.110;2023-04-29T08:16:16;96485.19;;;17.73;36.69
39363;BME280;25088;43.238;23.110;2023-04-29T08:18:42;96479.38;;;17.89;36.80
39363;BME280;25088;43.238;23.110;2023-04-29T08:21:07;96482.28;;;17.97;36.42
39363;BME280;25088;43.238;23.110;2023-04-29T08:23:36;96473.56;;;17.57;36.38
39363;BME280;25088;43.238;23.110;2023-04-29T08:26:01;96473.59;;;17.90;36.25
39363;BME280;25088;43.238;23.110;2023-04-29T08:28:27;96472.75;;;18.03;35.62
39363;BME280;25088;43.238;23.110;2023-04-29T08:30:53;96477.63;;;18.25;35.24
39363;BME280;25088;43.238;23.110;2023-04-29T08:33:18;96481.91;;;18.45;35.32
39363;BME280;25088;43.238;23.110;2023-04-29T08:35:43;96474.63;;;18.49;35.48
39363;BME280;25088;43.238;23.110;2023-04-29T08:38:10;96470.94;;;18.54;35.60
39363;BME280;25088;43.238;23.110;2023-04-29T08:40:42;96476.91;;;18.75;35.25
39363;BME280;25088;43.238;23.110;2023-04-29T08:43:08;96478.59;;;18.84;34.06
39363;BME280;25088;43.238;23.110;2023-04-29T08:45:35;96477.91;;;18.79;34.24
39363;BME280;25088;43.238;23.110;2023-04-29T08:48:05;96475.38;;;18.55;35.32
39363;BME280;25088;43.238;23.110;2023-04-29T08:50:32;96481.59;;;18.88;35.82
39363;BME280;25088;43.238;23.110;2023-04-29T08:53:01;96470.22;;;18.90;36.60
39363;BME280;25088;43.238;23.110;2023-04-29T08:55:27;96476.97;;;18.97;36.63
39363;BME280;25088;43.238;23.110;2023-04-29T08:57:54;96474.63;;;18.91;37.35
39363;BME280;25088;43.238;23.110;2023-04-29T09:00:21;96481.81;;;18.78;38.09
39363;BME280;25088;43.238;23.110;2023-04-29T09:02:49;96481.06;;;18.58;38.18
39363;BME280;25088;43.238;23.110;2023-04-29T09:05:15;96472.06;;;18.39;38.65
39363;BME280;25088;43.238;23.110;2023-04-29T09:07:41;96478.63;;;18.16;39.98
39363;BME280;25088;43.238;23.110;2023-04-29T09:10:08;96462.88;;;18.16;39.59
39363;BME280;25088;43.238;23.110;2023-04-29T09:12:34;96486.47;;;18.08;39.56
39363;BME280;25088;43.238;23.110;2023-04-29T09:15:00;96480.16;;;18.22;39.74
39363;BME280;25088;43.238;23.110;2023-04-29T09:17:45;96486.91;;;18.16;39.66
39363;BME280;25088;43.238;23.110;2023-04-29T09:22:49;96483.88;;;17.85;40.28
39363;BME280;25088;43.238;23.110;2023-04-29T09:25:15;96474.16;;;17.54;40.65
39363;BME280;25088;43.238;23.110;2023-04-29T09:27:40;96476.47;;;17.47;40.32
39363;BME280;25088;43.238;23.110;2023-04-29T09:30:07;96477.53;;;17.65;39.92
39363;BME280;25088;43.238;23.110;2023-04-29T09:32:33;96486.97;;;17.13;40.71
39363;BME280;25088;43.238;23.110;2023-04-29T09:37:47;96476.25;;;16.68;42.11
39363;BME280;25088;43.238;23.110;2023-04-29T09:40:30;96477.63;;;16.66;42.36
39363;BME280;25088;43.238;23.110;2023-04-29T09:42:56;96482.56;;;16.69;41.81
39363;BME280;25088;43.238;23.110;2023-04-29T09:45:38;96458.41;;;16.61;42.22
39363;BME280;25088;43.238;23.110;2023-04-29T09:48:06;96477.13;;;16.64;41.54
39363;BME280;25088;43.238;23.110;2023-04-29T09:50:33;96467.88;;;16.54;41.71
39363;BME280;25088;43.238;23.110;2023-04-29T09:52:59;96472.19;;;16.61;41.98
39363;BME280;25088;43.238;23.110;2023-04-29T09:55:25;96461.06;;;16.71;42.20
39363;BME280;25088;43.238;23.110;2023-04-29T09:57:54;96471.69;;;16.59;41.90
39363;BME280;25088;43.238;23.110;2023-04-29T10:00:20;96465.69;;;16.75;41.52
39363;BME280;25088;43.238;23.110;2023-04-29T10:02:47;96472.09;;;16.71;41.37
39363;BME280;25088;43.238;23.110;2023-04-29T10:05:16;96460.66;;;16.83;41.12
39363;BME280;25088;43.238;23.110;2023-04-29T10:07:41;96467.41;;;16.90;40.75
39363;BME280;25088;43.238;23.110;2023-04-29T10:10:08;96455.50;;;16.76;40.72
39363;BME280;25088;43.238;23.110;2023-04-29T10:12:36;96469.50;;;16.79;41.40
39363;BME280;25088;43.238;23.110;2023-04-29T10:17:45;96472.94;;;16.90;40.76
39363;BME280;25088;43.238;23.110;2023-04-29T10:20:14;96467.97;;;17.11;41.10
39363;BME280;25088;43.238;23.110;2023-04-29T10:22:48;96466.81;;;17.31;39.96
39363;BME280;25088;43.238;23.110;2023-04-29T10:25:18;96461.94;;;17.42;38.71
39363;BME280;25088;43.238;23.110;2023-04-29T10:27:45;96463.34;;;17.39;37.97
39363;BME280;25088;43.238;23.110;2023-04-29T10:30:13;96467.03;;;17.35;38.36
39363;BME280;25088;43.238;23.110;2023-04-29T10:32:40;96469.34;;;17.46;38.61
39363;BME280;25088;43.238;23.110;2023-04-29T10:35:10;96465.63;;;17.37;37.91
39363;BME280;25088;43.238;23.110;2023-04-29T10:37:37;96464.72;;;17.42;38.46
39363;BME280;25088;43.238;23.110;2023-04-29T10:40:13;96460.03;;;17.23;38.39
39363;BME280;25088;43.238;23.110;2023-04-29T10:42:52;96462.59;;;17.52;38.81
39363;BME280;25088;43.238;23.110;2023-04-29T10:45:23;96453.09;;;17.58;39.08
39363;BME280;25088;43.238;23.110;2023-04-29T10:50:38;96453.13;;;18.32;37.04
39363;BME280;25088;43.238;23.110;2023-04-29T10:53:06;96456.91;;;18.64;36.26
39363;BME280;25088;43.238;23.110;2023-04-29T10:55:36;96450.97;;;18.57;36.18
39363;BME280;25088;43.238;23.110;2023-04-29T10:58:03;96447.88;;;19.00;36.51
39363;BME280;25088;43.238;23.110;2023-04-29T11:00:30;96450.41;;;19.10;36.20
39363;BME280;25088;43.238;23.110;2023-04-29T11:02:57;96447.31;;;19.11;36.43
39363;BME280;25088;43.238;23.110;2023-04-29T11:05:34;96443.03;;;19.05;36.83
39363;BME280;25088;43.238;23.110;2023-04-29T11:08:42;96445.72;;;18.97;37.05
39363;BME280;25088;43.238;23.110;2023-04-29T11:11:00;96443.25;;;18.95;37.16
39363;BME280;25088;43.238;23.110;2023-04-29T11:13:27;96432.03;;;18.78;36.99
39363;BME280;25088;43.238;23.110;2023-04-29T11:16:05;96450.69;;;18.72;37.01
39363;BME280;25088;43.238;23.110;2023-04-29T11:18:32;96435.69;;;18.87;37.78
39363;BME280;25088;43.238;23.110;2023-04-29T11:23:33;96439.84;;;18.98;37.08
39363;BME280;25088;43.238;23.110;2023-04-29T11:26:00;96439.25;;;19.24;36.41
39363;BME280;25088;43.238;23.110;2023-04-29T11:28:32;96438.03;;;19.30;36.82
39363;BME280;25088;43.238;23.110;2023-04-29T11:30:58;96430.78;;;19.43;36.80
39363;BME280;25088;43.238;23.110;2023-04-29T11:33:25;96420.34;;;19.40;36.56
39363;BME280;25088;43.238;23.110;2023-04-29T11:35:53;96420.84;;;19.64;36.77
39363;BME280;25088;43.238;23.110;2023-04-29T11:38:26;96419.59;;;19.70;36.20
39363;BME280;25088;43.238;23.110;2023-04-29T11:40:54;96426.13;;;19.74;36.01
39363;BME280;25088;43.238;23.110;2023-04-29T11:43:19;96420.59;;;19.74;35.88
39363;BME280;25088;43.238;23.110;2023-04-29T11:45:46;96423.94;;;19.94;36.10
39363;BME280;25088;43.238;23.110;2023-04-29T11:48:19;96429.59;;;19.80;36.56
39363;BME280;25088;43.238;23.110;2023-04-29T11:50:46;96419.63;;;19.79;36.21
39363;BME280;25088;43.238;23.110;2023-04-29T11:53:12;96421.56;;;19.70;36.22
39363;BME280;25088;43.238;23.110;2023-04-29T11:55:40;96423.44;;;19.92;35.80
39363;BME280;25088;43.238;23.110;2023-04-29T11:58:07;96426.31;;;19.78;35.92
39363;BME280;25088;43.238;23.110;2023-04-29T12:00:33;96414.34;;;19.46;36.63
39363;BME280;25088;43.238;23.110;2023-04-29T12:02:59;96411.38;;;19.87;36.59
39363;BME280;25088;43.238;23.110;2023-04-29T12:05:24;96397.66;;;20.22;35.97
39363;BME280;25088;43.238;23.110;2023-04-29T12:07:50;96398.66;;;20.26;35.73
39363;BME280;25088;43.238;23.110;2023-04-29T12:10:16;96396.50;;;20.14;36.71
39363;BME280;25088;43.238;23.110;2023-04-29T12:12:41;96382.16;;;20.21;35.80
39363;BME280;25088;43.238;23.110;2023-04-29T12:15:11;96396.53;;;20.32;36.07
39363;BME280;25088;43.238;23.110;2023-04-29T12:17:40;96397.94;;;19.72;37.80
39363;BME280;25088;43.238;23.110;2023-04-29T12:20:07;96394.25;;;19.85;36.92
39363;BME280;25088;43.238;23.110;2023-04-29T12:22:36;96407.03;;;19.73;37.23
39363;BME280;25088;43.238;23.110;2023-04-29T12:25:02;96402.59;;;19.63;37.53
39363;BME280;25088;43.238;23.110;2023-04-29T12:27:28;96391.03;;;19.61;37.80
39363;BME280;25088;43.238;23.110;2023-04-29T12:29:56;96394.59;;;19.61;37.59
39363;BME280;25088;43.238;23.110;2023-04-29T12:32:23;96393.22;;;19.50;37.47
39363;BME280;25088;43.238;23.110;2023-04-29T12:34:50;96397.34;;;19.39;37.54
39363;BME280;25088;43.238;23.110;2023-04-29T12:37:21;96392.28;;;19.32;38.14
39363;BME280;25088;43.238;23.110;2023-04-29T12:39:50;96382.41;;;19.40;38.08
39363;BME280;25088;43.238;23.110;2023-04-29T12:42:17;96392.56;;;19.08;38.62
39363;BME280;25088;43.238;23.110;2023-04-29T12:44:46;96391.97;;;19.11;38.27
39363;BME280;25088;43.238;23.110;2023-04-29T12:47:12;96389.09;;;18.67;39.66
39363;BME280;25088;43.238;23.110;2023-04-29T12:49:42;96391.00;;;18.94;39.71
39363;BME280;25088;43.238;23.110;2023-04-29T12:52:08;96388.09;;;18.99;40.09
39363;BME280;25088;43.238;23.110;2023-04-29T12:54:40;96389.03;;;18.94;39.88
39363;BME280;25088;43.238;23.110;2023-04-29T12:57:09;96388.78;;;18.82;40.54
39363;BME280;25088;43.238;23.110;2023-04-29T12:59:35;96377.47;;;18.92;40.00
39363;BME280;25088;43.238;23.110;2023-04-29T13:02:01;96376.50;;;18.74;40.11
39363;BME280;25088;43.238;23.110;2023-04-29T13:04:26;96369.06;;;18.61;39.63
39363;BME280;25088;43.238;23.110;2023-04-29T13:06:52;96367.91;;;18.76;40.17
39363;BME280;25088;43.238;23.110;2023-04-29T13:09:25;96373.63;;;18.79;39.30
39363;BME280;25088;43.238;23.110;2023-04-29T13:11:50;96369.09;;;18.83;39.67